createdAt,value
2018-05-14T00:00:05.984Z,38.17
2018-05-14T00:05:08.495Z,39.77
2018-05-14T00:10:10.996Z,41.93
2018-05-14T00:15:13.506Z,38.63
2018-05-14T00:20:16.775Z,40.33
2018-05-14T00:25:19.287Z,38.57
2018-05-14T00:30:21.824Z,37.90
2018-05-14T00:35:24.339Z,41.77
2018-05-14T00:40:27.615Z,36.60
2018-05-14T00:45:30.127Z,37.70
2018-05-14T00:50:32.635Z,36.77
2018-05-14T00:55:35.183Z,40.43
2018-05-14T01:00:38.455Z,35.23
2018-05-14T01:05:40.968Z,37.47
2018-05-14T01:10:43.476Z,38.40
2018-05-14T01:15:46.748Z,36.53
2018-05-14T01:20:49.269Z,39.73
2018-05-14T01:25:51.776Z,39.13
2018-05-14T01:30:55.049Z,35.57
2018-05-14T01:35:57.548Z,42.17
2018-05-14T01:41:00.064Z,35.03
2018-05-14T01:46:03.333Z,35.23
2018-05-14T01:51:05.843Z,32.77
2018-05-14T01:56:08.348Z,40.43
2018-05-14T02:01:10.875Z,38.90
2018-05-14T02:06:13.348Z,32.53
2018-05-14T02:11:16.631Z,32.50
2018-05-14T02:16:19.140Z,37.20
2018-05-14T02:21:21.661Z,35.47
2018-05-14T02:26:24.932Z,29.27
2018-05-14T02:31:27.444Z,29.03
2018-05-14T02:36:29.949Z,31.40
2018-05-14T02:41:33.229Z,27.00
2018-05-14T02:46:35.728Z,28.67
2018-05-14T02:51:38.301Z,27.73
2018-05-14T02:56:40.800Z,26.00
2018-05-14T03:01:43.332Z,28.03
2018-05-14T03:06:46.606Z,27.73
2018-05-14T03:11:49.131Z,28.27
2018-05-14T03:16:52.409Z,27.37
2018-05-14T03:21:54.912Z,25.97
2018-05-14T03:26:57.424Z,28.50
2018-05-14T03:31:59.928Z,30.47
2018-05-14T03:37:03.187Z,24.67
2018-05-14T03:42:05.708Z,25.13
2018-05-14T03:47:08.212Z,23.33
2018-05-14T03:52:10.725Z,24.33
2018-05-14T03:57:14.005Z,21.77
2018-05-14T04:02:28.506Z,23.07
2018-05-14T04:07:31.667Z,22.40
2018-05-14T04:12:34.159Z,23.43
2018-05-14T04:17:37.495Z,22.70
2018-05-14T04:22:40.005Z,22.30
2018-05-14T04:27:42.499Z,21.90
2018-05-14T04:32:45.776Z,23.07
2018-05-14T04:37:48.281Z,20.30
2018-05-14T04:42:50.802Z,20.13
2018-05-14T04:47:53.301Z,22.27
2018-05-14T04:52:56.596Z,24.07
2018-05-14T04:57:59.100Z,23.93
2018-05-14T05:03:02.371Z,21.90
2018-05-14T05:08:04.884Z,24.90
2018-05-14T05:13:07.371Z,20.73
2018-05-14T05:18:09.879Z,22.00
2018-05-14T05:23:13.153Z,23.30
2018-05-14T05:28:15.678Z,27.53
2018-05-14T05:33:18.180Z,26.57
2018-05-14T05:38:21.438Z,24.83
2018-05-14T05:43:23.943Z,23.17
2018-05-14T05:48:26.472Z,26.20
2018-05-14T05:53:28.976Z,28.53
2018-05-14T05:58:32.236Z,26.53
2018-05-14T06:03:34.740Z,22.93
2018-05-14T06:08:37.245Z,22.57
2018-05-14T06:13:39.739Z,31.37
2018-05-14T06:18:42.244Z,66.50
2018-05-14T06:23:44.771Z,40.33
2018-05-14T06:28:47.268Z,37.33
2018-05-14T06:33:49.780Z,41.77
2018-05-14T06:38:52.279Z,35.60
2018-05-14T06:43:54.807Z,42.33
2018-05-14T06:48:57.316Z,38.93
2018-05-14T06:54:00.588Z,39.37
2018-05-14T06:59:03.096Z,36.57
2018-05-14T07:04:05.587Z,39.47
2018-05-14T07:09:08.087Z,36.97
2018-05-14T07:14:10.596Z,34.30
2018-05-14T07:19:13.883Z,37.00
2018-05-14T07:24:16.384Z,38.97
2018-05-14T07:29:18.891Z,31.07
2018-05-14T07:34:22.168Z,34.63
2018-05-14T07:39:24.667Z,30.33
2018-05-14T07:44:27.180Z,34.97
2018-05-14T07:49:29.715Z,31.50
2018-05-14T07:54:32.318Z,30.53
2018-05-14T07:59:34.727Z,29.03
2018-05-14T08:04:37.247Z,29.30
2018-05-14T08:09:39.768Z,34.80
2018-05-14T08:14:43.033Z,32.17
2018-05-14T08:19:45.535Z,40.47
2018-05-14T08:24:48.063Z,32.03
2018-05-14T08:29:51.332Z,28.83
2018-05-14T08:34:53.861Z,34.17
2018-05-14T08:39:57.120Z,34.07
2018-05-14T08:44:59.699Z,33.03
2018-05-14T08:50:02.224Z,28.30
2018-05-14T08:55:04.730Z,34.57
2018-05-14T09:00:07.228Z,36.73
2018-05-14T09:05:09.742Z,29.67
2018-05-14T09:10:13.024Z,30.63
2018-05-14T09:15:15.534Z,26.33
2018-05-14T09:20:18.796Z,27.53
2018-05-14T09:25:21.307Z,34.03
2018-05-14T09:30:23.810Z,33.67
2018-05-14T09:35:26.320Z,28.10
2018-05-14T09:40:28.820Z,30.97
2018-05-14T09:45:32.114Z,21.03
2018-05-14T09:50:34.625Z,20.97
2018-05-14T09:55:37.899Z,29.23
2018-05-14T10:00:41.164Z,21.97
2018-05-14T10:05:43.672Z,30.77
2018-05-14T10:10:46.200Z,25.03
2018-05-14T10:15:48.707Z,17.33
2018-05-14T10:20:51.200Z,22.03
2018-05-14T10:25:53.700Z,23.93
2018-05-14T10:30:56.987Z,18.07
2018-05-14T10:35:59.487Z,22.70
2018-05-14T10:41:02.002Z,14.77
2018-05-14T10:46:04.519Z,18.00
2018-05-14T10:51:07.052Z,13.20
2018-05-14T10:56:09.556Z,16.30
2018-05-14T11:01:12.072Z,12.67
2018-05-14T11:06:15.352Z,13.40
2018-05-14T11:11:17.844Z,11.63
2018-05-14T11:16:20.342Z,10.10
2018-05-14T11:21:22.832Z,12.40
2018-05-14T11:26:25.345Z,7.83
2018-05-14T11:31:27.848Z,10.63
2018-05-14T11:36:30.339Z,7.27
2018-05-14T11:41:33.612Z,6.90
2018-05-14T11:46:36.107Z,5.53
2018-05-14T11:51:38.597Z,5.97
2018-05-14T11:56:41.181Z,11.70
2018-05-14T12:01:43.604Z,5.50
2018-05-14T12:06:46.088Z,5.27
2018-05-14T12:11:48.587Z,5.20
2018-05-14T12:16:51.098Z,6.60
2018-05-14T12:21:53.589Z,5.00
2018-05-14T12:26:56.093Z,14.30
2018-05-14T12:31:59.402Z,7.40
2018-05-14T12:37:01.877Z,5.70
2018-05-14T12:42:04.388Z,4.50
2018-05-14T12:47:07.656Z,5.20
2018-05-14T12:52:10.164Z,5.43
2018-05-14T12:57:12.666Z,5.10
2018-05-14T13:02:15.155Z,4.80
2018-05-14T13:07:18.116Z,8.57
2018-05-14T13:12:20.611Z,5.00
2018-05-14T13:17:23.097Z,5.07
2018-05-14T13:22:25.600Z,4.43
2018-05-14T13:27:28.091Z,8.30
2018-05-14T13:32:30.599Z,5.63
2018-05-14T13:37:33.167Z,4.10
2018-05-14T13:42:35.598Z,10.70
2018-05-14T13:47:38.096Z,4.60
2018-05-14T13:52:40.584Z,4.90
2018-05-14T13:57:43.092Z,5.80
2018-05-14T14:02:45.596Z,4.50
2018-05-14T14:07:48.871Z,5.43
2018-05-14T14:12:51.375Z,5.80
2018-05-14T14:17:53.884Z,7.43
2018-05-14T14:22:56.408Z,6.07
2018-05-14T14:27:59.668Z,9.53
2018-05-14T14:33:02.169Z,4.70
2018-05-14T14:38:04.664Z,4.40
2018-05-14T14:43:07.186Z,7.80
2018-05-14T14:48:10.447Z,8.40
2018-05-14T14:53:12.956Z,9.20
2018-05-14T14:58:15.500Z,4.73
2018-05-14T15:03:17.945Z,4.63
2018-05-14T15:08:20.460Z,4.30
2018-05-14T15:13:23.724Z,7.20
2018-05-14T15:18:26.214Z,7.30
2018-05-14T15:23:28.713Z,4.40
2018-05-14T15:28:31.221Z,4.10
2018-05-14T15:33:33.720Z,5.70
2018-05-14T15:38:36.203Z,4.60
2018-05-14T15:43:38.769Z,15.63
2018-05-14T15:48:41.256Z,5.10
2018-05-14T15:53:43.757Z,6.53
2018-05-14T15:58:46.268Z,4.77
2018-05-14T16:03:48.761Z,5.80
2018-05-14T16:08:51.272Z,4.50
2018-05-14T16:13:53.776Z,7.90
2018-05-14T16:18:56.287Z,4.80
2018-05-14T16:23:59.543Z,7.37
2018-05-14T16:29:02.047Z,10.13
2018-05-14T16:34:04.554Z,7.73
2018-05-14T16:39:07.061Z,4.90
2018-05-14T16:44:09.560Z,6.43
2018-05-14T16:49:12.816Z,5.23
2018-05-14T16:54:15.363Z,4.03
2018-05-14T16:59:17.804Z,7.07
2018-05-14T17:04:20.312Z,4.43
2018-05-14T17:09:22.819Z,4.57
2018-05-14T17:14:25.415Z,9.50
2018-05-14T17:19:27.917Z,5.00
2018-05-14T17:24:30.407Z,4.33
2018-05-14T17:29:32.900Z,3.93
2018-05-14T17:34:35.431Z,5.30
2018-05-14T17:39:37.948Z,9.83
2018-05-14T17:44:40.471Z,5.93
2018-05-14T17:49:42.972Z,9.73
2018-05-14T17:54:45.464Z,8.90
2018-05-14T17:59:47.982Z,10.50
2018-05-14T18:04:51.300Z,13.43
2018-05-14T18:09:54.556Z,4.40
2018-05-14T18:14:57.061Z,4.40
2018-05-14T18:20:05.252Z,6.40
2018-05-14T18:25:13.473Z,5.80
2018-05-14T18:35:49.424Z,12.07
2018-05-14T18:40:54.028Z,6.97
2018-05-14T18:45:56.557Z,5.67
2018-05-14T18:50:59.082Z,11.07
2018-05-14T18:56:05.814Z,11.20
2018-05-14T19:01:08.354Z,6.00
2018-05-14T19:06:11.700Z,8.87
2018-05-14T19:11:19.895Z,4.50
2018-05-14T19:16:32.575Z,4.70
2018-05-14T19:21:35.084Z,4.83
2018-05-14T19:26:37.633Z,7.53
2018-05-14T19:31:40.968Z,11.30
2018-05-14T19:36:43.532Z,6.90
2018-05-14T19:41:52.289Z,5.60
2018-05-14T19:46:56.829Z,4.83
2018-05-14T19:52:01.336Z,6.80
2018-05-14T19:57:04.636Z,11.67
2018-05-14T20:02:07.953Z,5.30
2018-05-14T20:07:10.512Z,9.40
2018-05-14T20:12:13.111Z,5.13
2018-05-14T20:17:15.641Z,5.00
2018-05-14T20:22:18.171Z,7.27
2018-05-14T20:27:20.692Z,5.47
2018-05-14T20:32:23.223Z,10.63
2018-05-14T20:37:25.875Z,7.80
2018-05-14T20:42:28.376Z,5.47
2018-05-14T20:47:30.907Z,8.40
2018-05-14T20:52:33.440Z,5.00
2018-05-14T20:57:35.981Z,4.33
2018-05-14T21:02:38.604Z,5.03
2018-05-14T21:07:41.908Z,4.47
2018-05-14T21:12:45.280Z,4.50
2018-05-14T21:17:47.861Z,5.70
2018-05-14T21:22:50.416Z,4.80
2018-05-14T21:27:53.709Z,5.20
2018-05-14T21:32:57.064Z,6.07
2018-05-14T21:37:59.586Z,6.57
2018-05-14T21:43:02.169Z,11.50
2018-05-14T21:48:04.712Z,10.10
2018-05-14T21:53:08.029Z,5.83
2018-05-14T21:58:11.324Z,6.17
2018-05-14T22:03:13.931Z,5.20
2018-05-14T22:08:16.477Z,4.20
2018-05-14T22:13:19.052Z,5.50
2018-05-14T22:18:21.662Z,4.63
2018-05-14T22:23:24.909Z,5.47
2018-05-14T22:28:31.486Z,4.47
2018-05-14T22:33:33.989Z,6.87
2018-05-14T22:38:36.483Z,5.30
2018-05-14T22:43:38.988Z,10.60
2018-05-14T22:48:41.495Z,5.43
2018-05-14T22:53:44.764Z,4.30
2018-05-14T22:58:47.259Z,8.60
2018-05-14T23:03:49.744Z,5.63
2018-05-14T23:08:52.232Z,5.33
2018-05-14T23:13:54.745Z,4.60
2018-05-14T23:18:57.224Z,4.80
2018-05-14T23:23:59.720Z,4.33
2018-05-14T23:29:02.213Z,3.93
2018-05-14T23:34:04.728Z,11.00
2018-05-14T23:39:07.229Z,7.23
2018-05-14T23:44:09.716Z,4.00
2018-05-14T23:49:12.196Z,4.93
2018-05-14T23:54:14.672Z,4.17
2018-05-14T23:59:17.168Z,5.13
